Decoded Metar for KEDW (EDWARDS AFB in CA, USA) (IATA:EDW) | Meteo·Mobile Aviation Weather
aviador You're here:

KEDW Decoded Metar

EDWARDS AFB in CA, USA
Report Time2019-03-19 18:58:00
UTC Time2019-03-19 19:37:51
Flight Rules vfr VFR
Wind360° at 06 kt
W.Decomp.*RWY 04: 3.4 kt HW 4.9 kt LCW
RWY 06: 1.6 kt HW 5.8 kt LCW
Visibility9999 m
Phenomena:N/A
Clouds:Few 120 Hf
Broken 200 Hf
Broken 250 Hf
Expected CloudBase > 5,200 ft AGL from Temp-Dew spread
Ceiling20,000 ft
Temp19°C (ISA +9)
Dew Point06°C (43% RH)
AAT15.9°C
QNH1015 hPa
Density Alt3,369 ft
Elevation2,303 ft
Report Wrong Elevation
Raw Report
KEDW 191858Z 36006KT 50SM FEW120 BKN200 BKN250 19/06 A2996 RMK
AO2A SLP136 T01910055=

Extra information for KEDW:More info

Metar Taf Metar & Taf Last 4 Metars F.Rules Stats Wind Profile Meteogram Temp Stats Airport Information Weather charts Add Link Nearby VenuesMetar ALERT Operation Metar Decoded Social comments

AIRNAV info for KEDW